Himawari 2 — JG5636 — position and weather

sailwx.info

Track history (hours):
 
Tides and Currents Weather Stations Pressure Air Temp Water Temp Dewpoint Dewpoint Depression Visibility Wind Speed Wind Dir Waves Ship Positions

Himawari 2

Last reported at 2014-Jul-23 23:33 UTC. Time now 2014-Jul-26 11:10 UTC.
Position N 36°52' E 141°08'.

Length 161 m; draft 6.5 m.

Type: Cargo ship. MMSI: 431100957.

Date/timePositionNaut miles runAvg speedWind from/ knotsBaromVisibWave heightAir tempDewpointWater temp
2014-Jul-23 23:33N 36°52' E 141°08'1716.5
2014-Jul-23 22:33N 36°36' E 141°05'1818.1
2014-Jul-23 21:33N 36°18' E 141°03'1918.8
2014-Jul-23 20:33N 35°60' E 141°00'1918.7
2014-Jul-23 19:33N 35°41' E 140°57'2019.6
2014-Jul-23 18:33N 35°24' E 140°46'3021.2
2014-Jul-23 17:10N 35°01' E 140°23'1423.2
2014-Jul-23 16:33N 34°54' E 140°08'1919.0
2014-Jul-23 15:34N 34°53' E 139°45'1918.6
2014-Jul-23 14:34N 35°11' E 139°46'1312.9
2014-Jul-23 13:33N 35°24' E 139°43'1514.9
2014-Jul-23 12:34N 35°38' E 139°49'0 0.1
2014-Jul-23 11:30N 35°38' E 139°50'0 0.0
2014-Jul-23 10:33N 35°38' E 139°50'0 0.0
2014-Jul-23 09:33N 35°38' E 139°50'0 0.0
2014-Jul-23 08:33N 35°38' E 139°50'0 0.0
2014-Jul-23 07:33N 35°38' E 139°50'0 0.0
2014-Jul-23 06:33N 35°38' E 139°50'0 0.0
2014-Jul-23 05:33N 35°38' E 139°50'0 0.0
2014-Jul-23 04:33N 35°38' E 139°50'0 0.0
2014-Jul-23 03:30N 35°38' E 139°50'0 0.0
2014-Jul-23 02:33N 35°38' E 139°50'0 0.0
2014-Jul-23 01:33N 35°38' E 139°50'0 0.0
2014-Jul-23 00:33N 35°38' E 139°50'3 2.7
2014-Jul-22 23:33N 35°35' E 139°51'1413.9
2014-Jul-22 22:33N 35°22' E 139°45'1111.3
2014-Jul-22 21:33N 35°11' E 139°47'1514.8
2014-Jul-22 20:33N 34°59' E 139°36'1717.1
2014-Jul-22 19:33N 34°48' E 139°20'5617.8
2014-Jul-22 16:26N 34°19' E 138°22'17017.0
2014-Jul-22 06:26N 33°59' E 134°58'1820.0
2014-Jul-22 05:33N 34°17' E 134°59'2020.0
2014-Jul-22 04:32N 34°37' E 135°01'12 1.0
2014-Jul-21 17:33N 34°33' E 134°48'1413.7
2014-Jul-21 16:33N 34°36' E 135°04'1716.6
2014-Jul-21 15:33N 34°38' E 135°24'1 1.2
2014-Jul-21 14:29N 34°40' E 135°24'0 0.0
2014-Jul-21 13:23N 34°40' E 135°24'0 0.0
2014-Jul-21 11:17N 34°40' E 135°24'0 0.0
2014-Jul-21 10:29N 34°40' E 135°24'0 0.0
2014-Jul-21 09:29N 34°40' E 135°24'0 0.0
2014-Jul-21 08:29N 34°40' E 135°24'0 0.0
2014-Jul-21 07:29N 34°40' E 135°24'0 0.0
2014-Jul-21 06:29N 34°40' E 135°24'0 0.0
2014-Jul-21 05:29N 34°40' E 135°24'0 0.1
2014-Jul-21 04:33N 34°40' E 135°24'1211.7
2014-Jul-21 03:33N 34°31' E 135°14'1717.2
2014-Jul-21 02:33N 34°18' E 135°00'1717.4
2014-Jul-21 01:33N 34°01' E 135°01'21514.9
2014-Jul-20 11:05N 34°45' E 139°16'1116.6
2014-Jul-20 10:27N 34°53' E 139°24'1617.4
2014-Jul-20 09:33N 35°03' E 139°39'1514.6
2014-Jul-20 08:34N 35°17' E 139°45'1313.1
2014-Jul-20 07:34N 35°29' E 139°51'8 8.1
2014-Jul-20 06:31N 35°38' E 139°50'0 0.0
2014-Jul-20 05:31N 35°38' E 139°50'0 0.0
2014-Jul-20 04:28N 35°38' E 139°50'0 0.0
2014-Jul-20 03:28N 35°38' E 139°50'0 0.0
2014-Jul-20 02:31N 35°38' E 139°50'3 3.4
2014-Jul-20 01:33N 35°35' E 139°51'1414.5
2014-Jul-20 00:33N 35°21' E 139°45'1312.8
2014-Jul-19 23:33N 35°09' E 139°47'1515.3
2014-Jul-19 22:33N 34°53' E 139°46'1515.1
2014-Jul-19 21:33N 34°55' E 140°04'2222.4
2014-Jul-19 20:33N 35°06' E 140°28'2323.1
2014-Jul-19 19:34N 35°25' E 140°45'2323.0
2014-Jul-19 18:33N 35°45' E 140°58'  
2014-Jul-16 19:33N 35°45' E 141°01'1717.7
2014-Jul-16 18:33N 35°29' E 140°53'2220.4
2014-Jul-16 17:30N 35°11' E 140°38'2021.2
2014-Jul-16 16:33N 34°58' E 140°19'2420.7
2014-Jul-16 15:23N 34°48' E 139°52'1618.8
2014-Jul-16 14:33N 35°02' E 139°43'1515.5
2014-Jul-16 13:33N 35°17' E 139°45'1414.0
2014-Jul-16 12:33N 35°30' E 139°51'8 6.3
2014-Jul-16 11:20N 35°38' E 139°50'0 0.0
2014-Jul-16 10:32N 35°38' E 139°50'0 0.0
2014-Jul-16 09:32N 35°38' E 139°50'0 0.0
2014-Jul-16 08:29N 35°38' E 139°50'0 0.0
2014-Jul-16 07:32N 35°38' E 139°50'0 0.0
2014-Jul-16 06:28N 35°38' E 139°50'0 0.0
2014-Jul-16 05:31N 35°38' E 139°50'0 0.0
2014-Jul-16 04:28N 35°38' E 139°50'0 0.0
2014-Jul-16 03:32N 35°38' E 139°50'0 0.0
2014-Jul-16 02:31N 35°38' E 139°50'0 0.0
2014-Jul-16 01:31N 35°38' E 139°50'0 0.0
2014-Jul-16 00:32N 35°38' E 139°50'2 2.3
2014-Jul-15 23:33N 35°36' E 139°50'1414.4
2014-Jul-15 22:33N 35°22' E 139°45'1110.7
2014-Jul-15 21:34N 35°11' E 139°47'1514.7
2014-Jul-15 20:33N 34°59' E 139°37'2018.8
2014-Jul-15 19:29N 34°47' E 139°17'21916.9
2014-Jul-15 06:32N 33°59' E 134°58'2121.9
2014-Jul-15 05:33N 34°20' E 134°59'1615.6
2014-Jul-15 04:33N 34°36' E 134°56'15 1.4
2014-Jul-14 18:05N 34°31' E 134°39'814.7
2014-Jul-14 17:33N 34°34' E 134°48'1313.4
2014-Jul-14 16:33N 34°37' E 135°03'1716.5
2014-Jul-14 15:33N 34°38' E 135°23'1 1.3
2014-Jul-14 14:31N 34°40' E 135°24'0 0.0
2014-Jul-14 13:31N 34°40' E 135°24'0 0.0
2014-Jul-14 12:31N 34°40' E 135°24'0 0.0
2014-Jul-14 11:31N 34°40' E 135°24'0 0.0
2014-Jul-14 10:07N 34°40' E 135°24'0 0.0
2014-Jul-14 09:31N 34°40' E 135°24'0 0.0
2014-Jul-14 08:13N 34°40' E 135°24'0 0.0
2014-Jul-14 07:25N 34°40' E 135°24'0 0.0
2014-Jul-14 06:25N 34°40' E 135°24'0 0.5
2014-Jul-14 05:33N 34°39' E 135°24'1313.3
2014-Jul-14 04:32N 34°30' E 135°13'2020.8
2014-Jul-14 03:34N 34°13' E 134°59'  
Track history (hours):
 
Tides and Currents Weather Stations Pressure Air Temp Water Temp Dewpoint Dewpoint Depression Visibility Wind Speed Wind Dir Waves Ship Positions

Himawari 2

Last reported at 2014-Jul-23 23:33 UTC. Time now 2014-Jul-26 11:10 UTC.
Position N 36°52' E 141°08'.

Length 161 m; draft 6.5 m.

Type: Cargo ship. MMSI: 431100957.

Date/timePositionNaut miles runAvg speedWind from/ knotsBaromVisibWave heightAir tempDewpointWater temp
2014-Jul-23 23:33N 36°52' E 141°08'1716.5
2014-Jul-23 22:33N 36°36' E 141°05'1818.1
2014-Jul-23 21:33N 36°18' E 141°03'1918.8
2014-Jul-23 20:33N 35°60' E 141°00'1918.7
2014-Jul-23 19:33N 35°41' E 140°57'2019.6
2014-Jul-23 18:33N 35°24' E 140°46'3021.2
2014-Jul-23 17:10N 35°01' E 140°23'1423.2
2014-Jul-23 16:33N 34°54' E 140°08'1919.0
2014-Jul-23 15:34N 34°53' E 139°45'1918.6
2014-Jul-23 14:34N 35°11' E 139°46'1312.9
2014-Jul-23 13:33N 35°24' E 139°43'1514.9
2014-Jul-23 12:34N 35°38' E 139°49'0 0.1
2014-Jul-23 11:30N 35°38' E 139°50'0 0.0
2014-Jul-23 10:33N 35°38' E 139°50'0 0.0
2014-Jul-23 09:33N 35°38' E 139°50'0 0.0
2014-Jul-23 08:33N 35°38' E 139°50'0 0.0
2014-Jul-23 07:33N 35°38' E 139°50'0 0.0
2014-Jul-23 06:33N 35°38' E 139°50'0 0.0
2014-Jul-23 05:33N 35°38' E 139°50'0 0.0
2014-Jul-23 04:33N 35°38' E 139°50'0 0.0
2014-Jul-23 03:30N 35°38' E 139°50'0 0.0
2014-Jul-23 02:33N 35°38' E 139°50'0 0.0
2014-Jul-23 01:33N 35°38' E 139°50'0 0.0
2014-Jul-23 00:33N 35°38' E 139°50'3 2.7
2014-Jul-22 23:33N 35°35' E 139°51'1413.9
2014-Jul-22 22:33N 35°22' E 139°45'1111.3
2014-Jul-22 21:33N 35°11' E 139°47'1514.8
2014-Jul-22 20:33N 34°59' E 139°36'1717.1
2014-Jul-22 19:33N 34°48' E 139°20'5617.8
2014-Jul-22 16:26N 34°19' E 138°22'17017.0
2014-Jul-22 06:26N 33°59' E 134°58'1820.0
2014-Jul-22 05:33N 34°17' E 134°59'2020.0
2014-Jul-22 04:32N 34°37' E 135°01'12 1.0
2014-Jul-21 17:33N 34°33' E 134°48'1413.7
2014-Jul-21 16:33N 34°36' E 135°04'1716.6
2014-Jul-21 15:33N 34°38' E 135°24'1 1.2
2014-Jul-21 14:29N 34°40' E 135°24'0 0.0
2014-Jul-21 13:23N 34°40' E 135°24'0 0.0
2014-Jul-21 11:17N 34°40' E 135°24'0 0.0
2014-Jul-21 10:29N 34°40' E 135°24'0 0.0
2014-Jul-21 09:29N 34°40' E 135°24'0 0.0
2014-Jul-21 08:29N 34°40' E 135°24'0 0.0
2014-Jul-21 07:29N 34°40' E 135°24'0 0.0
2014-Jul-21 06:29N 34°40' E 135°24'0 0.0
2014-Jul-21 05:29N 34°40' E 135°24'0 0.1
2014-Jul-21 04:33N 34°40' E 135°24'1211.7
2014-Jul-21 03:33N 34°31' E 135°14'1717.2
2014-Jul-21 02:33N 34°18' E 135°00'1717.4
2014-Jul-21 01:33N 34°01' E 135°01'21514.9
2014-Jul-20 11:05N 34°45' E 139°16'1116.6
2014-Jul-20 10:27N 34°53' E 139°24'1617.4
2014-Jul-20 09:33N 35°03' E 139°39'1514.6
2014-Jul-20 08:34N 35°17' E 139°45'1313.1
2014-Jul-20 07:34N 35°29' E 139°51'8 8.1
2014-Jul-20 06:31N 35°38' E 139°50'0 0.0
2014-Jul-20 05:31N 35°38' E 139°50'0 0.0
2014-Jul-20 04:28N 35°38' E 139°50'0 0.0
2014-Jul-20 03:28N 35°38' E 139°50'0 0.0
2014-Jul-20 02:31N 35°38' E 139°50'3 3.4
2014-Jul-20 01:33N 35°35' E 139°51'1414.5
2014-Jul-20 00:33N 35°21' E 139°45'1312.8
2014-Jul-19 23:33N 35°09' E 139°47'1515.3
2014-Jul-19 22:33N 34°53' E 139°46'1515.1
2014-Jul-19 21:33N 34°55' E 140°04'2222.4
2014-Jul-19 20:33N 35°06' E 140°28'2323.1
2014-Jul-19 19:34N 35°25' E 140°45'2323.0
2014-Jul-19 18:33N 35°45' E 140°58'  
2014-Jul-16 19:33N 35°45' E 141°01'1717.7
2014-Jul-16 18:33N 35°29' E 140°53'2220.4
2014-Jul-16 17:30N 35°11' E 140°38'2021.2
2014-Jul-16 16:33N 34°58' E 140°19'2420.7
2014-Jul-16 15:23N 34°48' E 139°52'1618.8
2014-Jul-16 14:33N 35°02' E 139°43'1515.5
2014-Jul-16 13:33N 35°17' E 139°45'1414.0
2014-Jul-16 12:33N 35°30' E 139°51'8 6.3
2014-Jul-16 11:20N 35°38' E 139°50'0 0.0
2014-Jul-16 10:32N 35°38' E 139°50'0 0.0
2014-Jul-16 09:32N 35°38' E 139°50'0 0.0
2014-Jul-16 08:29N 35°38' E 139°50'0 0.0
2014-Jul-16 07:32N 35°38' E 139°50'0 0.0
2014-Jul-16 06:28N 35°38' E 139°50'0 0.0
2014-Jul-16 05:31N 35°38' E 139°50'0 0.0
2014-Jul-16 04:28N 35°38' E 139°50'0 0.0
2014-Jul-16 03:32N 35°38' E 139°50'0 0.0
2014-Jul-16 02:31N 35°38' E 139°50'0 0.0
2014-Jul-16 01:31N 35°38' E 139°50'0 0.0
2014-Jul-16 00:32N 35°38' E 139°50'2 2.3
2014-Jul-15 23:33N 35°36' E 139°50'1414.4
2014-Jul-15 22:33N 35°22' E 139°45'1110.7
2014-Jul-15 21:34N 35°11' E 139°47'1514.7
2014-Jul-15 20:33N 34°59' E 139°37'2018.8
2014-Jul-15 19:29N 34°47' E 139°17'21916.9
2014-Jul-15 06:32N 33°59' E 134°58'2121.9
2014-Jul-15 05:33N 34°20' E 134°59'1615.6
2014-Jul-15 04:33N 34°36' E 134°56'15 1.4
2014-Jul-14 18:05N 34°31' E 134°39'814.7
2014-Jul-14 17:33N 34°34' E 134°48'1313.4
2014-Jul-14 16:33N 34°37' E 135°03'1716.5
2014-Jul-14 15:33N 34°38' E 135°23'1 1.3
2014-Jul-14 14:31N 34°40' E 135°24'0 0.0
2014-Jul-14 13:31N 34°40' E 135°24'0 0.0
2014-Jul-14 12:31N 34°40' E 135°24'0 0.0
2014-Jul-14 11:31N 34°40' E 135°24'0 0.0
2014-Jul-14 10:07N 34°40' E 135°24'0 0.0
2014-Jul-14 09:31N 34°40' E 135°24'0 0.0
2014-Jul-14 08:13N 34°40' E 135°24'0 0.0
2014-Jul-14 07:25N 34°40' E 135°24'0 0.0
2014-Jul-14 06:25N 34°40' E 135°24'0 0.5
2014-Jul-14 05:33N 34°39' E 135°24'1313.3
2014-Jul-14 04:32N 34°30' E 135°13'2020.8
2014-Jul-14 03:34N 34°13' E 134°59'  

Dump ship's entire track history